createdAt,value
2016-12-13T00:00:26.055Z,86.51
2016-12-13T00:00:53.543Z,86.57
2016-12-13T00:01:45.735Z,86.54
2016-12-13T00:02:13.231Z,86.54
2016-12-13T00:02:39.743Z,86.56
2016-12-13T00:03:01.475Z,86.41
2016-12-13T00:03:58.456Z,86.17
2016-12-13T00:04:24.931Z,86.23
2016-12-13T00:04:46.652Z,86.10
2016-12-13T00:05:08.422Z,86.17
2016-12-13T00:05:30.145Z,86.13
2016-12-13T00:06:23.155Z,86.36
2016-12-13T00:07:48.743Z,86.46
2016-12-13T00:08:13.388Z,86.58
2016-12-13T00:08:39.894Z,86.36
2016-12-13T00:09:02.657Z,86.72
2016-12-13T00:09:24.430Z,86.90
2016-12-13T00:09:46.164Z,86.90
2016-12-13T00:10:07.913Z,86.96
2016-12-13T00:10:34.469Z,86.92
2016-12-13T00:11:26.607Z,86.83
2016-12-13T00:11:51.948Z,86.85
2016-12-13T00:12:53.580Z,87.33
2016-12-13T00:13:15.317Z,87.35
2016-12-13T00:13:38.101Z,87.36
2016-12-13T00:14:40.627Z,87.28
2016-12-13T00:15:08.747Z,87.24
2016-12-13T00:15:38.877Z,87.20
2016-12-13T00:16:27.270Z,87.40
2016-12-13T00:16:49.000Z,87.27
2016-12-13T00:17:10.747Z,87.17
2016-12-13T00:17:32.496Z,87.16
2016-12-13T00:17:54.240Z,87.07
2016-12-13T00:18:16.027Z,87.17
2016-12-13T00:18:37.806Z,87.07
2016-12-13T00:19:01.500Z,87.30
2016-12-13T00:19:24.240Z,87.51
2016-12-13T00:19:50.809Z,87.36
2016-12-13T00:21:16.066Z,87.46
2016-12-13T00:21:37.822Z,87.53
2016-12-13T00:22:00.585Z,87.52
2016-12-13T00:24:13.749Z,87.36
2016-12-13T00:24:35.493Z,87.28
2016-12-13T00:24:57.249Z,87.30
2016-12-13T00:25:18.971Z,87.24
2016-12-13T00:25:40.686Z,87.30
2016-12-13T00:26:02.443Z,87.46
2016-12-13T00:26:26.784Z,87.50
2016-12-13T00:26:58.234Z,87.26
2016-12-13T00:27:19.961Z,87.00
2016-12-13T00:28:13.971Z,86.80
2016-12-13T00:28:41.467Z,86.79
2016-12-13T00:29:12.738Z,86.64
2016-12-13T00:31:22.558Z,86.49
2016-12-13T00:31:44.304Z,86.52
2016-12-13T00:32:32.531Z,86.47
2016-12-13T00:33:04.835Z,86.36
2016-12-13T00:33:27.653Z,86.41
2016-12-13T00:33:54.144Z,86.36
2016-12-13T00:34:15.968Z,86.30
2016-12-13T00:34:42.459Z,86.23
2016-12-13T00:35:08.992Z,86.35
2016-12-13T00:35:35.488Z,86.28
2016-12-13T00:36:02.061Z,86.22
2016-12-13T00:36:26.653Z,86.34
2016-12-13T00:37:20.656Z,86.41
2016-12-13T00:37:42.416Z,86.40
2016-12-13T00:38:08.923Z,86.25
2016-12-13T00:38:33.461Z,86.31
2016-12-13T00:38:55.245Z,86.30
2016-12-13T00:39:17.018Z,86.06
2016-12-13T00:39:41.432Z,85.86
2016-12-13T00:40:04.145Z,85.67
2016-12-13T00:40:29.559Z,85.52
2016-12-13T00:40:57.056Z,85.62
2016-12-13T00:41:18.887Z,85.59
2016-12-13T00:41:45.383Z,85.69
2016-12-13T00:42:07.114Z,85.71
2016-12-13T00:42:40.896Z,85.81
2016-12-13T00:43:36.407Z,85.84
2016-12-13T00:43:59.144Z,86.01
2016-12-13T00:44:25.655Z,85.83
2016-12-13T00:44:48.417Z,86.08
2016-12-13T00:45:14.938Z,86.58
2016-12-13T00:45:41.441Z,86.49
2016-12-13T00:46:06.162Z,86.33
2016-12-13T00:46:28.917Z,86.08
2016-12-13T00:47:31.446Z,86.39
2016-12-13T00:48:20.663Z,86.04
2016-12-13T00:48:44.988Z,86.09
2016-12-13T00:49:11.487Z,86.08
2016-12-13T00:49:33.242Z,86.05
2016-12-13T00:49:59.743Z,86.11
2016-12-13T00:50:21.503Z,85.94
2016-12-13T00:51:15.511Z,85.99
2016-12-13T00:51:37.362Z,85.79
2016-12-13T00:51:59.144Z,85.70
2016-12-13T00:52:21.935Z,86.02
2016-12-13T00:53:30.740Z,85.95
2016-12-13T00:53:57.745Z,86.11
2016-12-13T00:54:27.076Z,85.92
2016-12-13T00:54:49.819Z,85.73
2016-12-13T00:55:15.212Z,85.92
2016-12-13T00:55:36.949Z,86.00
2016-12-13T00:55:58.713Z,86.04
2016-12-13T00:56:22.469Z,85.54
2016-12-13T00:56:49.035Z,85.79
2016-12-13T00:57:10.783Z,85.74
2016-12-13T00:57:37.279Z,85.77
2016-12-13T00:58:00.014Z,85.59
2016-12-13T00:58:31.553Z,85.69
2016-12-13T00:58:59.646Z,85.85
2016-12-13T00:59:22.420Z,85.76
2016-12-13T00:59:47.176Z,85.68
2016-12-13T01:00:14.761Z,85.63
2016-12-13T01:00:41.221Z,85.83
2016-12-13T01:01:03.291Z,85.77
2016-12-13T01:01:29.790Z,85.86
2016-12-13T01:01:56.297Z,85.98
2016-12-13T01:02:22.857Z,85.91
2016-12-13T01:02:44.732Z,85.52
2016-12-13T01:03:06.498Z,85.67
2016-12-13T01:03:31.116Z,85.68
2016-12-13T01:04:03.387Z,85.79
2016-12-13T01:04:29.802Z,85.71
2016-12-13T01:05:02.161Z,85.72
2016-12-13T01:06:05.756Z,85.80
2016-12-13T01:06:28.486Z,85.56
2016-12-13T01:07:23.583Z,86.01
2016-12-13T01:07:46.316Z,85.95
2016-12-13T01:08:13.630Z,85.97
2016-12-13T01:09:06.722Z,85.92
2016-12-13T01:09:28.498Z,86.24
2016-12-13T01:09:51.230Z,86.36
2016-12-13T01:10:25.230Z,86.50
2016-12-13T01:10:51.734Z,85.97
2016-12-13T01:11:17.215Z,86.00
2016-12-13T01:11:39.954Z,85.82
2016-12-13T01:12:38.219Z,85.11
2016-12-13T01:13:09.476Z,85.19
2016-12-13T01:13:39.577Z,85.57
2016-12-13T01:14:41.238Z,85.28
2016-12-13T01:15:04.977Z,85.70
2016-12-13T01:15:37.044Z,85.87
2016-12-13T01:17:35.443Z,86.35
2016-12-13T01:18:01.934Z,86.25
2016-12-13T01:18:23.721Z,85.99
2016-12-13T01:18:45.474Z,85.91
2016-12-13T01:19:07.239Z,85.79
2016-12-13T01:19:29.121Z,86.08
2016-12-13T01:19:51.454Z,86.47
2016-12-13T01:20:44.828Z,87.17
2016-12-13T01:21:16.092Z,87.34
2016-12-13T01:21:39.828Z,87.31
2016-12-13T01:22:05.303Z,87.20
2016-12-13T01:22:27.049Z,87.14
2016-12-13T01:22:59.054Z,86.94
2016-12-13T01:23:54.194Z,86.80
2016-12-13T01:24:26.465Z,86.29
2016-12-13T01:25:35.766Z,86.62
2016-12-13T01:26:05.798Z,86.24
2016-12-13T01:26:58.640Z,85.86
2016-12-13T01:27:30.570Z,85.67
2016-12-13T01:28:26.096Z,85.36
2016-12-13T01:28:51.375Z,84.98
2016-12-13T01:29:17.874Z,84.51
2016-12-13T01:30:43.708Z,84.39
2016-12-13T01:31:07.432Z,84.04
2016-12-13T01:31:33.932Z,84.22
2016-12-13T01:32:00.425Z,84.26
2016-12-13T01:32:24.747Z,84.61
2016-12-13T01:32:47.483Z,85.29
2016-12-13T01:33:14.991Z,85.23
2016-12-13T01:34:44.035Z,85.62
2016-12-13T01:35:13.172Z,85.39
2016-12-13T01:35:40.667Z,85.17
2016-12-13T01:37:01.199Z,85.38
2016-12-13T01:37:22.926Z,85.46
2016-12-13T01:37:45.678Z,85.29
2016-12-13T01:39:12.944Z,85.09
2016-12-13T01:39:34.736Z,85.13
2016-12-13T01:39:56.472Z,85.22
2016-12-13T01:40:22.211Z,85.10
2016-12-13T01:40:48.713Z,84.67
2016-12-13T01:41:12.436Z,84.82
2016-12-13T01:41:35.203Z,84.94
2016-12-13T01:41:58.080Z,85.00
2016-12-13T01:42:19.758Z,84.76
2016-12-13T01:42:46.269Z,84.94
2016-12-13T01:43:20.344Z,85.17
2016-12-13T01:43:44.960Z,85.06
2016-12-13T01:44:43.216Z,85.07
2016-12-13T01:45:04.992Z,84.73
2016-12-13T01:45:26.793Z,84.68
2016-12-13T01:45:48.542Z,84.69
2016-12-13T01:46:16.029Z,84.40
2016-12-13T01:47:17.777Z,84.35
2016-12-13T01:47:45.334Z,84.48
2016-12-13T01:48:13.630Z,84.25
2016-12-13T01:49:25.511Z,84.55
2016-12-13T01:49:50.073Z,84.39
2016-12-13T01:50:12.814Z,84.68
2016-12-13T01:50:49.849Z,84.66
2016-12-13T01:51:43.255Z,84.75
2016-12-13T01:52:04.980Z,84.76
2016-12-13T01:52:30.733Z,84.83
2016-12-13T01:55:41.110Z,84.02
2016-12-13T01:56:02.940Z,84.10
2016-12-13T02:15:31.709Z,84.03
2016-12-13T02:16:05.610Z,83.99
2016-12-13T02:16:41.644Z,84.07
2016-12-13T02:17:21.998Z,83.92
2016-12-13T02:19:53.778Z,84.88
2016-12-13T02:20:55.075Z,84.70
2016-12-13T02:21:17.854Z,84.72
2016-12-13T02:21:39.597Z,84.42
2016-12-13T02:22:08.895Z,84.23
2016-12-13T02:26:00.738Z,84.38
2016-12-13T02:33:27.232Z,85.39
2016-12-13T02:38:43.826Z,85.24
2016-12-13T02:40:13.746Z,85.21
2016-12-13T02:44:28.496Z,85.43
2016-12-13T02:45:48.979Z,84.76
2016-12-13T02:47:22.178Z,84.93
2016-12-13T02:49:12.814Z,85.29
2016-12-13T02:49:51.502Z,85.58
2016-12-13T02:50:59.663Z,85.10
2016-12-13T02:52:10.542Z,85.08
2016-12-13T02:54:49.146Z,85.10
2016-12-13T02:56:11.553Z,85.06
2016-12-13T02:56:38.120Z,85.15
2016-12-13T02:58:26.215Z,84.20
2016-12-13T03:02:33.555Z,83.61
2016-12-13T03:04:23.539Z,83.93
2016-12-13T03:05:02.389Z,83.23
2016-12-13T03:05:36.285Z,83.36
2016-12-13T03:06:15.413Z,83.80
2016-12-13T03:07:32.782Z,84.14
2016-12-13T03:13:48.949Z,84.48
2016-12-13T03:15:01.156Z,84.13
2016-12-13T03:16:22.402Z,83.77
2016-12-13T03:17:03.296Z,83.82
2016-12-13T03:18:37.088Z,84.51
2016-12-13T03:19:14.152Z,84.56
2016-12-13T03:20:53.816Z,84.66
2016-12-13T03:21:27.902Z,84.28
2016-12-13T03:25:47.318Z,83.63
2016-12-13T04:04:50.846Z,84.65
2016-12-13T04:05:17.330Z,84.50
2016-12-13T04:05:39.055Z,84.53
2016-12-13T04:06:05.540Z,84.42
2016-12-13T04:06:27.279Z,84.21
2016-12-13T04:06:59.543Z,84.10
2016-12-13T04:07:26.873Z,83.97
2016-12-13T04:07:54.884Z,83.92
2016-12-13T04:08:25.967Z,83.11
2016-12-13T04:08:56.122Z,83.13
2016-12-13T04:09:27.196Z,84.01
2016-12-13T04:10:34.820Z,83.92
2016-12-13T04:10:56.597Z,83.91
2016-12-13T04:11:23.175Z,84.03
2016-12-13T04:12:29.362Z,84.36
2016-12-13T04:14:44.357Z,84.15
2016-12-13T04:15:08.591Z,84.05
2016-12-13T04:15:36.095Z,83.77
2016-12-13T04:16:08.371Z,83.66
2016-12-13T04:17:14.555Z,83.06
2016-12-13T04:17:39.943Z,82.95
2016-12-13T04:18:01.700Z,82.82
2016-12-13T04:19:04.325Z,83.50
2016-12-13T04:19:30.631Z,84.36
2016-12-13T04:19:55.011Z,84.87
2016-12-13T04:20:16.733Z,84.57
2016-12-13T04:20:44.269Z,84.20
2016-12-13T04:21:07.006Z,83.82
2016-12-13T04:22:41.821Z,84.45
2016-12-13T04:23:04.573Z,84.61
2016-12-13T04:24:07.028Z,84.13
2016-12-13T04:24:33.515Z,84.49
2016-12-13T04:26:02.544Z,84.83
2016-12-13T04:26:58.484Z,84.87
2016-12-13T04:27:25.977Z,85.14
2016-12-13T04:27:57.270Z,85.76
2016-12-13T04:28:19.004Z,85.93
2016-12-13T04:28:46.508Z,85.54
2016-12-13T04:29:13.006Z,85.30
2016-12-13T04:30:09.697Z,83.87
2016-12-13T04:31:13.823Z,83.62
2016-12-13T04:32:23.782Z,84.12
2016-12-13T04:32:46.526Z,84.29
2016-12-13T04:34:15.375Z,84.57
2016-12-13T04:34:41.903Z,83.87
2016-12-13T04:35:06.471Z,83.53
2016-12-13T04:35:30.729Z,82.96
2016-12-13T04:37:50.070Z,82.28
2016-12-13T04:38:21.371Z,82.23
2016-12-13T04:38:43.271Z,82.39
2016-12-13T04:39:13.519Z,81.95
2016-12-13T04:40:18.716Z,81.86
2016-12-13T04:41:22.355Z,83.20
2016-12-13T04:42:11.507Z,82.76
2016-12-13T04:42:47.054Z,82.71
2016-12-13T04:43:48.188Z,82.88
2016-12-13T04:44:13.950Z,83.16
2016-12-13T04:47:58.097Z,85.92
2016-12-13T04:49:42.635Z,85.00
2016-12-13T04:51:25.043Z,85.38
2016-12-13T04:52:37.110Z,85.14
2016-12-13T04:53:45.383Z,84.02
2016-12-13T04:54:45.906Z,84.39
2016-12-13T04:56:51.519Z,83.90
2016-12-13T05:00:02.551Z,82.41
2016-12-13T05:03:36.692Z,83.52
2016-12-13T05:04:07.850Z,83.62
2016-12-13T05:04:38.950Z,82.94
2016-12-13T05:05:05.497Z,82.88
2016-12-13T05:08:00.163Z,83.91
2016-12-13T05:27:47.575Z,84.10
2016-12-13T05:29:30.663Z,83.92
2016-12-13T05:30:46.172Z,86.04
2016-12-13T05:32:56.700Z,86.78
2016-12-13T05:34:13.655Z,87.74
2016-12-13T05:59:08.724Z,87.83
2016-12-13T06:05:48.022Z,86.92
2016-12-13T06:06:19.354Z,86.90
2016-12-13T06:11:53.981Z,88.68
2016-12-13T06:14:59.190Z,87.82
2016-12-13T06:18:06.606Z,88.88
2016-12-13T06:19:56.050Z,90.08
2016-12-13T06:20:28.436Z,89.55
2016-12-13T06:21:35.956Z,91.33
2016-12-13T06:22:39.527Z,91.49
2016-12-13T06:23:13.342Z,90.81
2016-12-13T06:24:27.053Z,90.50
2016-12-13T06:28:28.572Z,90.74
2016-12-13T06:32:21.798Z,92.21
2016-12-13T06:33:35.726Z,92.89
2016-12-13T06:34:02.365Z,91.92
2016-12-13T06:35:09.993Z,91.05
2016-12-13T06:37:25.411Z,91.92
2016-12-13T06:38:46.104Z,92.56
2016-12-13T06:39:54.972Z,91.65
2016-12-13T06:40:24.034Z,92.21
2016-12-13T06:43:51.287Z,91.68
2016-12-13T06:45:40.160Z,93.04
2016-12-13T06:46:54.325Z,92.40
2016-12-13T06:49:51.161Z,91.09
2016-12-13T06:50:15.953Z,90.47
2016-12-13T06:51:23.276Z,91.12
2016-12-13T06:51:58.155Z,90.58
2016-12-13T06:52:29.444Z,90.10
2016-12-13T06:54:47.940Z,91.18
2016-12-13T06:55:14.455Z,92.30
2016-12-13T06:55:44.716Z,91.96
2016-12-13T06:56:20.612Z,91.32
2016-12-13T06:56:51.884Z,92.00
2016-12-13T06:59:30.329Z,92.25
2016-12-13T06:59:57.833Z,91.76
2016-12-13T07:00:22.158Z,91.03
2016-12-13T07:00:43.927Z,91.49
2016-12-13T07:02:16.596Z,91.43
2016-12-13T07:02:52.630Z,91.38
2016-12-13T07:04:27.386Z,90.98
2016-12-13T07:04:57.599Z,90.66
2016-12-13T07:05:54.468Z,90.78
2016-12-13T07:06:17.278Z,91.27
2016-12-13T07:06:42.199Z,90.64
2016-12-13T07:07:09.705Z,90.64
2016-12-13T07:07:34.185Z,90.46
2016-12-13T07:08:00.495Z,90.36
2016-12-13T07:08:32.811Z,89.88
2016-12-13T07:09:04.075Z,90.61
2016-12-13T07:09:33.144Z,91.15
2016-12-13T07:10:31.502Z,91.68
2016-12-13T07:11:29.027Z,91.25
2016-12-13T07:11:55.539Z,90.28
2016-12-13T07:12:26.838Z,91.12
2016-12-13T07:14:39.209Z,90.09
2016-12-13T07:15:06.928Z,90.14
2016-12-13T07:15:33.425Z,89.91
2016-12-13T07:16:00.973Z,89.77
2016-12-13T07:16:23.694Z,89.96
2016-12-13T07:16:51.198Z,90.32
2016-12-13T07:17:18.696Z,90.50
2016-12-13T07:17:41.464Z,90.91
2016-12-13T07:18:03.196Z,90.76
2016-12-13T07:18:29.708Z,90.39
2016-12-13T07:18:52.448Z,89.18
2016-12-13T07:19:14.187Z,90.09
2016-12-13T07:19:40.697Z,90.31
2016-12-13T07:20:30.024Z,89.24
2016-12-13T07:20:56.524Z,88.63
2016-12-13T07:21:18.256Z,88.21
2016-12-13T07:21:39.992Z,88.26
2016-12-13T07:22:14.195Z,88.23
2016-12-13T07:22:35.931Z,87.88
2016-12-13T07:22:57.672Z,87.84
2016-12-13T07:23:19.531Z,87.63
2016-12-13T07:23:41.304Z,87.47
2016-12-13T07:24:03.109Z,87.73
2016-12-13T07:24:24.921Z,87.59
2016-12-13T07:24:47.644Z,87.31
2016-12-13T07:25:09.405Z,87.43
2016-12-13T07:25:35.886Z,87.27
2016-12-13T07:25:58.635Z,87.81
2016-12-13T07:26:20.419Z,87.65
2016-12-13T07:26:43.163Z,87.90
2016-12-13T07:27:04.891Z,87.98
2016-12-13T07:27:27.624Z,87.96
2016-12-13T07:27:49.360Z,88.05
2016-12-13T07:28:11.077Z,88.28
2016-12-13T07:28:32.813Z,87.75
2016-12-13T07:28:54.563Z,88.38
2016-12-13T07:29:25.830Z,89.38
2016-12-13T07:30:19.377Z,88.99
2016-12-13T07:31:09.731Z,88.08
2016-12-13T07:31:31.480Z,87.93
2016-12-13T07:31:57.976Z,88.21
2016-12-13T07:32:20.715Z,87.55
2016-12-13T07:32:43.475Z,88.08
2016-12-13T07:33:05.215Z,88.34
2016-12-13T07:33:31.707Z,88.45
2016-12-13T07:33:53.470Z,87.93
2016-12-13T07:34:20.989Z,88.06
2016-12-13T07:34:43.728Z,88.00
2016-12-13T07:35:06.466Z,88.11
2016-12-13T07:35:28.192Z,88.43
2016-12-13T07:35:50.914Z,88.44
2016-12-13T07:36:45.904Z,88.57
2016-12-13T07:37:08.643Z,89.49
2016-12-13T07:37:35.133Z,89.64
2016-12-13T07:37:57.883Z,89.15
2016-12-13T07:38:24.405Z,88.84
2016-12-13T07:38:47.123Z,88.94
2016-12-13T07:39:13.605Z,89.15
2016-12-13T07:40:02.832Z,88.89
2016-12-13T07:40:51.098Z,88.77
2016-12-13T07:41:17.616Z,89.39
2016-12-13T07:41:48.885Z,89.32
2016-12-13T07:42:10.629Z,90.53
2016-12-13T07:42:37.125Z,91.32
2016-12-13T07:42:58.880Z,90.48
2016-12-13T07:43:26.376Z,90.50
2016-12-13T07:43:53.875Z,90.93
2016-12-13T07:44:15.611Z,91.10
2016-12-13T07:44:37.363Z,90.80
2016-12-13T07:45:08.639Z,89.97
2016-12-13T07:45:31.667Z,89.72
2016-12-13T07:45:53.427Z,90.49
2016-12-13T07:46:19.924Z,90.56
2016-12-13T07:47:47.011Z,90.78
2016-12-13T07:48:12.864Z,90.54
2016-12-13T07:48:39.567Z,90.16
2016-12-13T07:49:06.082Z,89.90
2016-12-13T07:49:32.587Z,89.34
2016-12-13T07:49:54.410Z,88.90
2016-12-13T07:50:16.232Z,88.97
2016-12-13T07:50:42.922Z,88.98
2016-12-13T07:51:04.674Z,89.07
2016-12-13T07:52:07.732Z,88.82
2016-12-13T07:52:35.242Z,88.78
2016-12-13T07:53:01.778Z,89.23
2016-12-13T07:53:24.549Z,89.67
2016-12-13T07:53:47.271Z,89.74
2016-12-13T07:54:15.792Z,89.86
2016-12-13T07:54:38.548Z,89.61
2016-12-13T07:55:02.280Z,89.67
2016-12-13T07:55:33.549Z,89.43
2016-12-13T07:55:55.303Z,89.22
2016-12-13T07:56:17.047Z,89.95
2016-12-13T07:57:42.842Z,90.08
2016-12-13T07:58:04.578Z,89.98
2016-12-13T07:58:36.842Z,89.67
2016-12-13T07:58:58.573Z,90.19
2016-12-13T07:59:25.066Z,90.40
2016-12-13T07:59:47.788Z,90.30
2016-12-13T08:00:14.292Z,90.13
2016-12-13T08:01:07.322Z,90.46
2016-12-13T08:01:29.013Z,91.43
2016-12-13T08:02:18.269Z,91.48
2016-12-13T08:02:40.987Z,91.28
2016-12-13T08:03:02.730Z,90.71
2016-12-13T08:03:36.693Z,90.15
2016-12-13T08:03:59.560Z,90.06
2016-12-13T08:04:21.203Z,89.42
2016-12-13T08:04:44.988Z,89.79
2016-12-13T08:05:07.705Z,90.12
2016-12-13T08:05:29.449Z,89.79
2016-12-13T08:05:51.187Z,90.44
2016-12-13T08:06:12.915Z,90.50
2016-12-13T08:06:34.666Z,90.63
2016-12-13T08:07:01.172Z,90.39
2016-12-13T08:07:27.672Z,90.63
2016-12-13T08:07:51.405Z,89.97
2016-12-13T08:08:15.118Z,90.20
2016-12-13T08:09:10.131Z,91.46
2016-12-13T08:09:31.875Z,91.18
2016-12-13T08:09:53.638Z,90.30
2016-12-13T08:11:15.406Z,90.46
2016-12-13T08:11:37.428Z,90.74
2016-12-13T08:11:59.195Z,91.14
2016-12-13T08:12:20.990Z,91.33
2016-12-13T08:12:43.716Z,90.76
2016-12-13T08:13:05.457Z,89.89
2016-12-13T08:13:34.604Z,90.54
2016-12-13T08:13:59.883Z,90.25
2016-12-13T08:14:26.548Z,90.60
2016-12-13T08:14:53.027Z,90.75
2016-12-13T08:15:56.297Z,89.60
2016-12-13T08:16:49.313Z,89.63
2016-12-13T08:17:11.047Z,89.33
2016-12-13T08:17:32.772Z,89.53
2016-12-13T08:17:54.516Z,89.66
2016-12-13T08:18:18.258Z,89.84
2016-12-13T08:19:06.478Z,90.02
2016-12-13T08:19:33.092Z,89.75
2016-12-13T08:19:55.824Z,89.64
2016-12-13T08:20:19.566Z,89.97
2016-12-13T08:20:46.085Z,90.55
2016-12-13T08:21:40.086Z,90.72
2016-12-13T08:22:02.806Z,90.62
2016-12-13T08:23:00.580Z,90.21
2016-12-13T08:23:22.311Z,90.19
2016-12-13T08:23:49.802Z,89.71
2016-12-13T08:24:11.527Z,89.77
2016-12-13T08:25:04.535Z,89.92
2016-12-13T08:25:27.294Z,89.84
2016-12-13T08:25:53.795Z,89.58
2016-12-13T08:26:20.291Z,89.54
2016-12-13T08:26:44.636Z,89.58
2016-12-13T08:27:06.364Z,89.78
2016-12-13T08:27:28.132Z,89.82
2016-12-13T08:27:54.631Z,89.33
2016-12-13T08:28:16.364Z,89.46
2016-12-13T08:28:39.090Z,89.19
2016-12-13T08:29:27.317Z,90.13
2016-12-13T08:29:49.053Z,90.38
2016-12-13T08:30:11.824Z,90.39
2016-12-13T08:30:34.559Z,90.17
2016-12-13T08:31:24.821Z,90.88
2016-12-13T08:31:46.623Z,90.60
2016-12-13T08:32:10.869Z,90.76
2016-12-13T08:32:33.698Z,90.65
2016-12-13T08:32:56.447Z,90.62
2016-12-13T08:33:19.204Z,90.18
2016-12-13T08:33:45.696Z,90.63
2016-12-13T08:34:38.841Z,91.72
2016-12-13T08:35:05.335Z,91.92
2016-12-13T08:35:31.877Z,91.78
2016-12-13T08:35:53.632Z,91.39
2016-12-13T08:36:16.356Z,91.22
2016-12-13T08:37:14.224Z,90.95
2016-12-13T08:37:40.722Z,91.52
2016-12-13T08:38:07.232Z,92.04
2016-12-13T08:38:29.981Z,91.93
2016-12-13T08:38:56.485Z,91.63
2016-12-13T08:39:18.274Z,91.42
2016-12-13T08:39:44.773Z,91.08
2016-12-13T08:40:13.788Z,90.84
2016-12-13T08:40:35.601Z,90.55
2016-12-13T08:40:57.346Z,90.55
2016-12-13T08:41:19.078Z,90.55
2016-12-13T08:42:12.090Z,90.59
2016-12-13T08:42:34.817Z,90.42
2016-12-13T08:43:06.906Z,90.33
2016-12-13T08:43:28.636Z,90.35
2016-12-13T08:44:19.006Z,90.57
2016-12-13T08:44:51.265Z,90.89
2016-12-13T08:45:13.017Z,90.92
2016-12-13T08:45:39.516Z,90.66
2016-12-13T08:46:42.052Z,90.49
2016-12-13T08:47:03.796Z,90.14
2016-12-13T08:47:25.517Z,90.03
2016-12-13T08:47:47.248Z,89.48
2016-12-13T08:48:11.715Z,90.24
2016-12-13T08:49:09.306Z,90.50
2016-12-13T08:49:31.022Z,90.58
2016-12-13T08:49:52.774Z,91.08
2016-12-13T08:50:14.502Z,91.27
2016-12-13T08:50:37.222Z,90.85
2016-12-13T08:51:04.727Z,90.39
2016-12-13T08:51:26.473Z,90.38
2016-12-13T08:51:48.199Z,90.12
2016-12-13T08:52:10.033Z,89.81
2016-12-13T08:52:36.532Z,89.90
2016-12-13T08:52:58.257Z,89.98
2016-12-13T08:53:20.175Z,90.02
2016-12-13T08:53:46.553Z,89.92
2016-12-13T08:54:08.287Z,89.75
2016-12-13T08:54:30.014Z,89.32
2016-12-13T08:54:51.868Z,89.48
2016-12-13T08:55:13.597Z,90.07
2016-12-13T08:55:35.316Z,90.46
2016-12-13T08:56:01.809Z,91.00
2016-12-13T08:56:23.535Z,90.79
2016-12-13T08:56:45.260Z,90.68
2016-12-13T08:57:06.974Z,90.83
2016-12-13T08:57:29.727Z,90.92
2016-12-13T08:57:51.461Z,90.75
2016-12-13T08:58:13.200Z,90.54
2016-12-13T08:58:36.915Z,90.31
2016-12-13T08:59:04.411Z,89.94
2016-12-13T08:59:26.137Z,89.73
2016-12-13T08:59:47.876Z,89.42
2016-12-13T09:00:09.611Z,89.27
2016-12-13T09:00:34.014Z,89.17
2016-12-13T09:01:01.512Z,89.44
2016-12-13T09:01:23.278Z,89.91
2016-12-13T09:01:46.979Z,90.04
2016-12-13T09:02:08.703Z,89.83
2016-12-13T09:02:30.434Z,89.89
2016-12-13T09:02:52.194Z,90.23
2016-12-13T09:03:14.908Z,90.24
2016-12-13T09:03:36.657Z,90.22
2016-12-13T09:04:29.670Z,90.32
2016-12-13T09:04:51.397Z,90.54
2016-12-13T09:05:18.886Z,90.30
2016-12-13T09:05:50.164Z,90.26
2016-12-13T09:06:11.902Z,90.19
2016-12-13T09:06:38.405Z,90.11
2016-12-13T09:07:00.129Z,89.58
2016-12-13T09:07:21.862Z,89.67
2016-12-13T09:08:11.097Z,89.22
2016-12-13T09:08:32.835Z,88.74
2016-12-13T09:08:58.183Z,88.50
2016-12-13T09:09:19.923Z,88.18
2016-12-13T09:09:47.436Z,88.26
2016-12-13T09:10:41.445Z,88.49
2016-12-13T09:11:08.934Z,88.40
2016-12-13T09:11:57.210Z,88.86
2016-12-13T09:12:23.555Z,88.96
2016-12-13T09:12:49.356Z,88.94
2016-12-13T09:13:12.092Z,88.75
2016-12-13T09:14:06.086Z,89.12
2016-12-13T09:14:27.825Z,89.36
2016-12-13T09:15:16.105Z,89.17
2016-12-13T09:15:42.587Z,89.83
2016-12-13T09:16:09.087Z,90.14
2016-12-13T09:16:30.830Z,90.51
2016-12-13T09:16:52.563Z,90.64
2016-12-13T09:17:15.300Z,90.49
2016-12-13T09:17:37.017Z,90.13
2016-12-13T09:17:58.761Z,89.98
2016-12-13T09:18:25.272Z,90.35
2016-12-13T09:18:46.993Z,90.27
2016-12-13T09:19:08.723Z,90.49
2016-12-13T09:19:35.228Z,90.17
2016-12-13T09:19:56.947Z,90.07
2016-12-13T09:20:19.721Z,90.08
2016-12-13T09:20:41.459Z,90.13
2016-12-13T09:21:03.190Z,89.91
2016-12-13T09:21:24.910Z,89.75
2016-12-13T09:21:46.638Z,89.53
2016-12-13T09:22:08.377Z,89.47
2016-12-13T09:22:30.097Z,89.28
2016-12-13T09:22:51.821Z,89.27
2016-12-13T09:23:18.320Z,89.22
2016-12-13T09:23:42.799Z,89.36
2016-12-13T09:24:04.544Z,89.25
2016-12-13T09:24:31.035Z,89.40
2016-12-13T09:24:57.532Z,89.70
2016-12-13T09:25:19.253Z,89.69
2016-12-13T09:25:41.000Z,89.28
2016-12-13T09:26:02.739Z,88.98
2016-12-13T09:26:25.445Z,89.14
2016-12-13T09:26:47.169Z,89.51
2016-12-13T09:27:08.891Z,89.84
2016-12-13T09:27:35.392Z,89.95
2016-12-13T09:27:58.164Z,89.92
2016-12-13T09:28:20.897Z,89.70
2016-12-13T09:28:42.617Z,89.99
2016-12-13T09:29:32.856Z,89.52
2016-12-13T09:29:55.616Z,89.39
2016-12-13T09:30:17.342Z,88.89
2016-12-13T09:30:39.075Z,88.28
2016-12-13T09:31:06.569Z,87.88
2016-12-13T09:31:55.814Z,88.12
2016-12-13T09:32:48.840Z,88.60
2016-12-13T09:33:49.407Z,88.12
2016-12-13T09:34:11.131Z,88.28
2016-12-13T09:34:32.861Z,89.02
2016-12-13T09:34:54.585Z,89.32
2016-12-13T09:35:16.320Z,89.27
2016-12-13T09:35:39.299Z,89.30
2016-12-13T09:36:06.815Z,89.17
2016-12-13T09:36:28.547Z,89.08
2016-12-13T09:36:51.291Z,88.97
2016-12-13T09:37:13.032Z,89.04
2016-12-13T09:37:39.378Z,89.13
2016-12-13T09:38:05.877Z,88.97
2016-12-13T09:38:55.090Z,89.54
2016-12-13T09:39:43.317Z,89.57
2016-12-13T09:40:05.037Z,90.13
2016-12-13T09:40:31.531Z,90.40
2016-12-13T09:40:54.257Z,90.03
2016-12-13T09:41:17.986Z,89.48
2016-12-13T09:41:39.690Z,89.29
2016-12-13T09:42:01.413Z,89.73
2016-12-13T09:42:23.138Z,90.00
2016-12-13T09:42:49.642Z,89.76
2016-12-13T09:43:14.359Z,89.98
2016-12-13T09:43:36.080Z,89.92
2016-12-13T09:44:02.572Z,89.67
2016-12-13T09:44:24.298Z,89.47
2016-12-13T09:44:46.025Z,89.66
2016-12-13T09:45:07.742Z,89.67
2016-12-13T09:45:29.462Z,89.49
2016-12-13T09:45:55.962Z,88.80
2016-12-13T09:46:17.691Z,88.81
2016-12-13T09:46:39.439Z,88.71
2016-12-13T09:47:04.850Z,88.69
2016-12-13T09:47:31.349Z,88.96
2016-12-13T09:47:53.098Z,89.21
2016-12-13T09:48:14.824Z,89.52
2016-12-13T09:48:36.555Z,89.48
2016-12-13T09:48:59.286Z,89.36
2016-12-13T09:49:21.017Z,89.55
2016-12-13T09:49:43.751Z,89.68
2016-12-13T09:50:06.466Z,89.34
2016-12-13T09:50:29.200Z,89.10
2016-12-13T09:50:50.931Z,89.02
2016-12-13T09:51:12.660Z,88.86
2016-12-13T09:51:34.395Z,88.83
2016-12-13T09:51:56.123Z,88.68
2016-12-13T09:52:17.845Z,88.77
2016-12-13T09:52:49.115Z,88.58
2016-12-13T09:53:38.344Z,88.44
2016-12-13T09:54:00.091Z,88.58
2016-12-13T09:54:21.821Z,88.63
2016-12-13T09:54:43.545Z,88.53
2016-12-13T09:55:06.267Z,88.50
2016-12-13T09:55:27.995Z,88.48
2016-12-13T09:55:57.157Z,88.39
2016-12-13T09:57:09.663Z,89.23
2016-12-13T09:57:36.177Z,88.99
2016-12-13T09:57:57.898Z,89.05
2016-12-13T09:58:51.892Z,89.61
2016-12-13T09:59:13.625Z,90.31
2016-12-13T09:59:35.338Z,90.12
2016-12-13T09:59:57.070Z,90.11
2016-12-13T10:00:21.673Z,90.38
2016-12-13T10:00:43.398Z,90.63
2016-12-13T10:01:05.131Z,90.41
2016-12-13T10:01:36.403Z,90.57
2016-12-13T10:01:58.142Z,90.33
2016-12-13T10:02:22.445Z,90.46
2016-12-13T10:02:44.174Z,90.44
2016-12-13T10:03:05.905Z,90.58
2016-12-13T10:03:28.642Z,90.45
2016-12-13T10:03:50.369Z,90.06
2016-12-13T10:04:17.872Z,90.16
2016-12-13T10:04:49.139Z,90.46
2016-12-13T10:05:10.868Z,90.22
2016-12-13T10:05:32.591Z,90.19
2016-12-13T10:05:55.317Z,90.25
2016-12-13T10:06:17.047Z,90.15
2016-12-13T10:06:38.758Z,90.06
2016-12-13T10:07:00.488Z,90.19
2016-12-13T10:07:48.718Z,90.17
2016-12-13T10:08:12.445Z,90.44
2016-12-13T10:08:34.183Z,90.36
2016-12-13T10:09:00.680Z,90.19
2016-12-13T10:09:23.411Z,90.05
2016-12-13T10:09:45.134Z,90.48
2016-12-13T10:10:06.877Z,90.74
2016-12-13T10:10:28.610Z,90.70
2016-12-13T10:10:50.336Z,90.65
2016-12-13T10:11:16.819Z,90.48
2016-12-13T10:11:38.550Z,90.58
2016-12-13T10:12:00.269Z,90.38
2016-12-13T10:12:21.985Z,90.14
2016-12-13T10:12:43.717Z,90.14
2016-12-13T10:13:05.442Z,90.12